createdAt,value
2017-10-20T00:00:49.055Z,94.17
2017-10-20T00:03:16.624Z,97.23
2017-10-20T00:05:44.180Z,91.80
2017-10-20T00:08:11.748Z,78.13
2017-10-20T00:10:39.290Z,80.83
2017-10-20T00:13:06.823Z,78.80
2017-10-20T00:15:34.360Z,78.90
2017-10-20T00:18:01.893Z,74.03
2017-10-20T00:20:29.544Z,88.60
2017-10-20T00:22:57.929Z,77.83
2017-10-20T00:25:25.780Z,84.07
2017-10-20T00:27:53.360Z,70.83
2017-10-20T00:30:20.901Z,98.13
2017-10-20T00:32:48.476Z,73.80
2017-10-20T00:35:16.136Z,81.00
2017-10-20T00:37:43.669Z,92.63
2017-10-20T00:40:11.211Z,80.03
2017-10-20T00:42:38.752Z,90.80
2017-10-20T00:45:06.284Z,76.10
2017-10-20T00:47:33.827Z,77.87
2017-10-20T00:50:01.371Z,86.20
2017-10-20T00:52:28.958Z,79.93
2017-10-20T00:54:56.522Z,77.77
2017-10-20T00:57:24.060Z,82.30
2017-10-20T00:59:51.599Z,76.90
2017-10-20T01:02:19.137Z,82.37
2017-10-20T01:04:46.773Z,73.60
2017-10-20T01:07:14.306Z,76.17
2017-10-20T01:09:41.845Z,73.07
2017-10-20T01:12:09.389Z,75.07
2017-10-20T01:14:36.933Z,67.93
2017-10-20T01:17:04.472Z,79.20
2017-10-20T01:19:32.375Z,82.00
2017-10-20T01:21:59.926Z,90.33
2017-10-20T01:24:27.455Z,62.20
2017-10-20T01:26:55.026Z,80.30
2017-10-20T01:29:22.734Z,79.63
2017-10-20T01:31:50.267Z,79.13
2017-10-20T01:34:17.893Z,68.80
2017-10-20T01:36:45.476Z,83.80
2017-10-20T01:39:13.020Z,78.53
2017-10-20T01:41:41.335Z,60.27
2017-10-20T01:44:10.056Z,73.67
2017-10-20T01:46:37.585Z,65.53
2017-10-20T01:49:05.198Z,69.23
2017-10-20T01:51:32.745Z,83.33
2017-10-20T01:54:00.303Z,82.73
2017-10-20T01:56:27.836Z,73.57
2017-10-20T01:58:55.368Z,75.37
2017-10-20T02:01:22.948Z,78.43
2017-10-20T02:03:50.488Z,81.60
2017-10-20T02:06:18.109Z,66.10
2017-10-20T02:08:45.644Z,74.17
2017-10-20T02:11:13.239Z,65.67
2017-10-20T02:13:41.461Z,68.47
2017-10-20T02:16:09.088Z,65.77
2017-10-20T02:18:37.464Z,75.80
2017-10-20T02:21:05.813Z,78.00
2017-10-20T02:23:34.112Z,93.87
2017-10-20T02:26:02.453Z,76.40
2017-10-20T02:28:30.022Z,75.17
2017-10-20T02:30:57.565Z,71.80
2017-10-20T02:33:25.186Z,67.20
2017-10-20T02:35:52.730Z,68.00
2017-10-20T02:38:20.309Z,65.23
2017-10-20T02:40:47.864Z,74.67
2017-10-20T02:43:15.389Z,68.70
2017-10-20T02:45:42.924Z,75.27
2017-10-20T02:48:10.541Z,76.63
2017-10-20T02:50:38.069Z,68.07
2017-10-20T02:53:05.601Z,68.37
2017-10-20T02:55:33.131Z,81.87
2017-10-20T02:58:00.693Z,77.40
2017-10-20T03:00:28.246Z,78.80
2017-10-20T03:02:55.808Z,62.07
2017-10-20T03:05:23.363Z,86.97
2017-10-20T03:07:50.896Z,86.90
2017-10-20T03:10:20.544Z,77.63
2017-10-20T03:12:48.092Z,78.47
2017-10-20T03:15:15.620Z,80.37
2017-10-20T03:17:43.158Z,86.20
2017-10-20T03:20:10.704Z,74.20
2017-10-20T03:22:38.238Z,81.67
2017-10-20T03:25:05.788Z,81.70
2017-10-20T03:27:33.323Z,75.10
2017-10-20T03:30:01.014Z,76.30
2017-10-20T03:32:28.547Z,70.63
2017-10-20T03:34:56.081Z,89.10
2017-10-20T03:37:23.611Z,78.97
2017-10-20T03:39:51.151Z,71.70
2017-10-20T03:42:18.693Z,88.50
2017-10-20T03:44:46.233Z,86.37
2017-10-20T03:47:13.773Z,75.13
2017-10-20T03:49:41.307Z,89.40
2017-10-20T03:52:08.852Z,70.67
2017-10-20T03:54:36.915Z,77.53
2017-10-20T03:57:04.481Z,81.73
2017-10-20T03:59:32.016Z,73.73
2017-10-20T04:02:00.519Z,66.67
2017-10-20T04:04:28.059Z,62.27
2017-10-20T04:06:55.648Z,81.73
2017-10-20T04:09:23.183Z,77.50
2017-10-20T04:11:50.711Z,91.33
2017-10-20T04:14:18.251Z,72.47
2017-10-20T04:16:45.790Z,100.67
2017-10-20T04:19:13.327Z,74.77
2017-10-20T04:21:40.912Z,94.10
2017-10-20T04:24:08.467Z,87.50
2017-10-20T04:26:36.007Z,83.23
2017-10-20T04:29:03.538Z,81.30
2017-10-20T04:31:32.089Z,81.80
2017-10-20T04:33:59.631Z,76.87
2017-10-20T04:36:27.168Z,75.53
2017-10-20T04:38:54.701Z,79.53
2017-10-20T04:41:22.425Z,75.73
2017-10-20T04:43:49.991Z,73.37
2017-10-20T04:46:18.263Z,76.50
2017-10-20T04:48:45.796Z,82.77
2017-10-20T04:51:13.347Z,88.70
2017-10-20T04:53:40.880Z,80.67
2017-10-20T04:56:08.411Z,86.33
2017-10-20T04:58:35.953Z,83.87
2017-10-20T05:01:03.598Z,84.50
2017-10-20T05:03:31.200Z,93.13
2017-10-20T05:05:58.760Z,84.27
2017-10-20T05:08:26.300Z,86.07
2017-10-20T05:10:53.833Z,86.13
2017-10-20T05:13:21.409Z,80.53
2017-10-20T05:15:48.941Z,86.53
2017-10-20T05:18:16.472Z,71.43
2017-10-20T05:20:44.001Z,87.50
2017-10-20T05:23:12.796Z,89.80
2017-10-20T05:25:40.324Z,90.87
2017-10-20T05:28:07.858Z,81.80
2017-10-20T05:30:35.397Z,85.17
2017-10-20T05:33:02.932Z,90.43
2017-10-20T05:35:30.472Z,78.23
2017-10-20T05:37:58.012Z,74.20
2017-10-20T05:40:25.624Z,75.53
2017-10-20T05:42:53.167Z,84.00
2017-10-20T05:45:20.695Z,83.70
2017-10-20T05:47:48.300Z,88.13
2017-10-20T05:50:19.227Z,87.90
2017-10-20T05:52:46.756Z,77.77
2017-10-20T05:55:14.289Z,88.00
2017-10-20T05:57:41.824Z,84.70
2017-10-20T06:00:09.383Z,75.77
2017-10-20T06:02:37.732Z,80.97
2017-10-20T06:05:05.266Z,74.83
2017-10-20T06:07:32.809Z,79.23
2017-10-20T06:10:00.352Z,85.83
2017-10-20T06:12:27.883Z,82.10
2017-10-20T06:14:55.457Z,82.73
2017-10-20T06:17:35.001Z,69.43
2017-10-20T06:20:02.540Z,80.77
2017-10-20T06:22:30.116Z,71.77
2017-10-20T06:24:57.656Z,73.57
2017-10-20T06:27:25.189Z,75.50
2017-10-20T06:29:53.624Z,82.47
2017-10-20T06:32:21.287Z,96.47
2017-10-20T06:34:48.913Z,82.57
2017-10-20T06:37:16.444Z,87.43
2017-10-20T06:39:44.788Z,68.47
2017-10-20T06:42:12.313Z,72.10
2017-10-20T06:44:40.700Z,85.50
2017-10-20T06:47:08.233Z,78.57
2017-10-20T06:49:35.772Z,79.97
2017-10-20T06:52:03.337Z,80.80
2017-10-20T06:54:30.871Z,70.60
2017-10-20T06:56:58.400Z,87.87
2017-10-20T06:59:25.938Z,86.33
2017-10-20T07:01:53.668Z,86.37
2017-10-20T07:04:21.309Z,79.00
2017-10-20T07:06:48.872Z,75.67
2017-10-20T07:09:16.409Z,75.53
2017-10-20T07:11:44.196Z,74.03
2017-10-20T07:14:11.794Z,78.17
2017-10-20T07:16:39.371Z,88.43
2017-10-20T07:22:10.898Z,75.80
2017-10-20T07:24:38.556Z,77.03
2017-10-20T07:27:06.420Z,76.53
2017-10-20T07:29:35.813Z,83.47
2017-10-20T07:32:03.433Z,76.60
2017-10-20T07:34:31.037Z,82.47
2017-10-20T07:36:58.573Z,72.37
2017-10-20T07:39:26.264Z,79.40
2017-10-20T07:41:53.799Z,72.27
2017-10-20T07:44:21.337Z,80.75
2017-10-20T07:46:50.170Z,89.07
2017-10-20T07:49:18.712Z,79.67
2017-10-20T07:51:46.288Z,67.33
2017-10-20T07:54:14.477Z,90.60
2017-10-20T07:56:42.023Z,75.53
2017-10-20T07:59:09.607Z,64.10
2017-10-20T08:01:37.147Z,77.37
2017-10-20T08:04:04.741Z,58.97
2017-10-20T08:06:32.286Z,64.77
2017-10-20T08:08:59.824Z,68.10
2017-10-20T08:11:28.140Z,61.60
2017-10-20T08:13:55.812Z,57.27
2017-10-20T08:16:24.418Z,62.67
2017-10-20T08:18:52.051Z,60.10
2017-10-20T08:21:19.593Z,62.17
2017-10-20T08:23:47.175Z,71.13
2017-10-20T08:26:14.710Z,64.70
2017-10-20T08:28:42.260Z,60.00
2017-10-20T08:31:09.796Z,60.27
2017-10-20T08:33:37.380Z,52.67
2017-10-20T08:36:04.972Z,57.07
2017-10-20T08:38:33.421Z,54.33
2017-10-20T08:41:02.054Z,54.70
2017-10-20T08:43:29.588Z,51.53
2017-10-20T08:45:57.157Z,58.83
2017-10-20T08:48:24.709Z,45.13
2017-10-20T08:50:52.285Z,41.63
2017-10-20T08:53:19.872Z,56.83
2017-10-20T08:55:47.409Z,57.43
2017-10-20T08:58:16.008Z,45.07
2017-10-20T09:00:43.547Z,53.33
2017-10-20T09:03:11.087Z,49.27
2017-10-20T09:05:38.633Z,39.63
2017-10-20T09:08:06.233Z,38.50
2017-10-20T09:10:34.698Z,47.43
2017-10-20T09:13:02.237Z,44.23
2017-10-20T09:15:29.800Z,41.57
2017-10-20T09:17:57.338Z,47.77
2017-10-20T09:20:24.887Z,41.83
2017-10-20T09:22:52.429Z,44.10
2017-10-20T09:25:20.081Z,35.40
2017-10-20T09:27:47.623Z,48.93
2017-10-20T09:30:19.334Z,41.50
2017-10-20T09:32:46.957Z,34.67
2017-10-20T09:35:14.593Z,36.77
2017-10-20T09:37:42.188Z,38.63
2017-10-20T09:40:10.593Z,32.70
2017-10-20T09:42:38.224Z,38.13
2017-10-20T09:45:06.955Z,34.97
2017-10-20T09:47:34.545Z,44.20
2017-10-20T09:50:02.137Z,37.03
2017-10-20T09:52:29.670Z,35.53
2017-10-20T09:54:57.970Z,35.67
2017-10-20T09:57:26.330Z,27.83
2017-10-20T09:59:53.870Z,33.40
2017-10-20T10:02:21.461Z,30.57
2017-10-20T10:04:49.016Z,30.50
2017-10-20T10:07:16.553Z,28.10
2017-10-20T10:09:44.140Z,30.43
2017-10-20T10:12:11.682Z,29.13
2017-10-20T10:14:39.273Z,31.63
2017-10-20T10:17:06.822Z,26.27
2017-10-20T10:19:34.388Z,31.10
2017-10-20T10:22:01.923Z,33.47
2017-10-20T10:24:30.338Z,37.93
2017-10-20T10:26:57.909Z,26.17
2017-10-20T10:29:26.064Z,30.00
2017-10-20T10:31:54.905Z,30.43
2017-10-20T10:34:22.518Z,27.93
2017-10-20T10:36:50.104Z,34.33
2017-10-20T10:39:17.649Z,27.13
2017-10-20T10:41:46.083Z,35.00
2017-10-20T10:44:13.680Z,29.90
2017-10-20T10:46:42.145Z,29.87
2017-10-20T10:49:09.719Z,29.50
2017-10-20T10:51:38.060Z,22.67
2017-10-20T10:54:05.635Z,27.73
2017-10-20T10:56:33.901Z,26.10
2017-10-20T10:59:01.440Z,28.20
2017-10-20T11:01:29.728Z,25.03
2017-10-20T11:03:57.280Z,24.70
2017-10-20T11:06:36.695Z,22.57
2017-10-20T11:09:16.461Z,26.77
2017-10-20T11:11:55.965Z,25.70
2017-10-20T11:14:23.503Z,29.47
2017-10-20T11:16:51.937Z,30.07
2017-10-20T11:19:19.468Z,24.80
2017-10-20T11:21:48.875Z,34.00
2017-10-20T11:24:16.560Z,21.60
2017-10-20T11:26:44.096Z,22.97
2017-10-20T11:29:11.656Z,28.33
2017-10-20T11:31:40.041Z,24.67
2017-10-20T11:34:07.609Z,25.63
2017-10-20T11:36:35.979Z,23.67
2017-10-20T11:39:03.518Z,23.27
2017-10-20T11:41:31.931Z,23.43
2017-10-20T11:43:59.576Z,29.07
2017-10-20T11:46:27.900Z,23.20
2017-10-20T11:48:55.517Z,20.70
2017-10-20T11:51:23.758Z,25.60
2017-10-20T11:53:51.306Z,18.77
2017-10-20T11:56:19.377Z,31.20
2017-10-20T11:58:46.921Z,23.47
2017-10-20T12:01:14.463Z,20.70
2017-10-20T12:03:42.007Z,22.83
2017-10-20T12:06:09.568Z,26.33
2017-10-20T12:08:37.129Z,27.80
2017-10-20T12:11:04.664Z,21.97
2017-10-20T12:13:32.197Z,27.37
2017-10-20T12:15:59.740Z,24.20
2017-10-20T12:18:27.281Z,26.83
2017-10-20T12:20:54.823Z,26.17
2017-10-20T12:23:22.374Z,25.10
2017-10-20T12:25:49.964Z,27.67
2017-10-20T12:28:17.843Z,28.53
2017-10-20T12:30:46.203Z,20.30
2017-10-20T12:33:13.758Z,21.90
2017-10-20T12:35:41.299Z,29.70
2017-10-20T12:38:08.880Z,22.30
2017-10-20T12:40:37.257Z,27.10
2017-10-20T12:43:05.780Z,26.53
2017-10-20T12:45:33.333Z,24.43
2017-10-20T12:48:00.868Z,25.90
2017-10-20T12:50:28.402Z,29.07
2017-10-20T12:52:55.938Z,26.63
2017-10-20T12:55:23.536Z,29.53
2017-10-20T12:57:51.713Z,28.00
2017-10-20T13:00:20.735Z,21.63
2017-10-20T13:02:48.276Z,27.73
2017-10-20T13:05:15.820Z,27.77
2017-10-20T13:07:43.366Z,20.37
2017-10-20T13:10:10.902Z,27.27
2017-10-20T13:12:38.512Z,28.93
2017-10-20T13:15:06.051Z,32.83
2017-10-20T13:17:33.665Z,31.97
2017-10-20T13:20:01.300Z,29.67
2017-10-20T13:22:28.864Z,33.00
2017-10-20T13:24:56.440Z,32.47
2017-10-20T13:27:24.078Z,33.33
2017-10-20T13:29:51.604Z,28.90
2017-10-20T13:32:20.269Z,26.13
2017-10-20T13:34:48.648Z,25.70
2017-10-20T13:37:17.289Z,29.60
2017-10-20T13:39:44.853Z,29.70
2017-10-20T13:42:12.408Z,25.60
2017-10-20T13:44:39.989Z,25.70
2017-10-20T13:47:08.423Z,26.67
2017-10-20T13:49:36.967Z,31.87
2017-10-20T13:52:05.517Z,26.03
2017-10-20T13:54:33.828Z,28.87
2017-10-20T13:57:02.183Z,31.37
2017-10-20T13:59:30.535Z,36.33
2017-10-20T14:01:58.811Z,33.30
2017-10-20T14:04:27.245Z,37.13
2017-10-20T14:06:55.656Z,36.13
2017-10-20T14:09:24.108Z,35.53
2017-10-20T14:11:52.420Z,31.23
2017-10-20T14:14:19.953Z,34.67
2017-10-20T14:16:48.392Z,34.90
2017-10-20T14:19:15.925Z,36.90
2017-10-20T14:21:44.368Z,34.67
2017-10-20T14:24:11.942Z,32.23
2017-10-20T14:26:40.384Z,35.23
2017-10-20T14:29:08.036Z,28.10
2017-10-20T14:31:36.360Z,36.43
2017-10-20T14:34:03.928Z,37.43
2017-10-20T14:36:31.541Z,35.03
2017-10-20T14:38:59.801Z,28.60
2017-10-20T14:41:28.067Z,37.53
2017-10-20T14:43:55.658Z,30.20
2017-10-20T14:46:24.036Z,33.03
2017-10-20T14:48:51.596Z,36.50
2017-10-20T14:51:20.101Z,40.93
2017-10-20T14:53:47.636Z,37.03
2017-10-20T14:56:16.032Z,31.93
2017-10-20T14:58:43.572Z,31.27
2017-10-20T15:01:11.984Z,35.30
2017-10-20T15:03:40.332Z,40.37
2017-10-20T15:06:08.687Z,35.37
2017-10-20T15:08:42.064Z,40.17
2017-10-20T15:11:09.642Z,41.53
2017-10-20T15:13:38.089Z,44.20
2017-10-20T15:16:05.631Z,42.73
2017-10-20T15:18:33.166Z,42.83
2017-10-20T15:21:02.552Z,39.30
2017-10-20T15:23:30.780Z,48.53
2017-10-20T15:25:58.312Z,45.83
2017-10-20T15:28:25.852Z,56.50
2017-10-20T15:30:53.444Z,39.93
2017-10-20T15:33:20.997Z,40.60
2017-10-20T15:35:49.646Z,40.27
2017-10-20T15:38:18.140Z,45.63
2017-10-20T15:40:45.833Z,44.07
2017-10-20T15:43:13.369Z,45.03
2017-10-20T15:45:40.900Z,45.40
2017-10-20T15:48:08.445Z,44.43
2017-10-20T15:50:36.792Z,34.80
2017-10-20T15:53:04.326Z,45.57
2017-10-20T15:55:32.764Z,48.80
2017-10-20T15:58:00.833Z,49.63
2017-10-20T16:00:29.300Z,39.13
2017-10-20T16:02:56.835Z,41.60
2017-10-20T16:05:24.512Z,44.60
2017-10-20T16:07:52.949Z,42.50
2017-10-20T16:10:20.674Z,33.20
2017-10-20T16:12:48.211Z,43.57
2017-10-20T16:15:15.746Z,44.17
2017-10-20T16:17:43.337Z,42.93
2017-10-20T16:20:10.905Z,41.53
2017-10-20T16:22:38.480Z,43.23
2017-10-20T16:25:06.029Z,49.23
2017-10-20T16:27:33.573Z,43.27
2017-10-20T16:30:01.722Z,44.60
2017-10-20T16:32:29.311Z,43.77
2017-10-20T16:34:56.862Z,45.93
2017-10-20T16:37:26.015Z,50.27
2017-10-20T16:39:54.158Z,49.60
2017-10-20T16:42:22.360Z,49.93
2017-10-20T16:44:49.893Z,47.30
2017-10-20T16:47:17.432Z,51.10
2017-10-20T16:49:44.971Z,55.27
2017-10-20T16:52:12.533Z,54.23
2017-10-20T16:54:40.073Z,47.97
2017-10-20T16:57:07.617Z,52.30
2017-10-20T16:59:35.240Z,47.80
2017-10-20T17:02:03.697Z,49.50
2017-10-20T17:04:32.096Z,60.20
2017-10-20T17:06:59.628Z,58.33
2017-10-20T17:09:27.736Z,55.80
2017-10-20T17:11:55.300Z,49.40
2017-10-20T17:14:22.848Z,40.83
2017-10-20T17:16:50.383Z,54.60
2017-10-20T17:19:17.928Z,49.63
2017-10-20T17:21:45.516Z,38.30
2017-10-20T17:24:13.048Z,55.97
2017-10-20T17:26:40.621Z,39.20
2017-10-20T17:29:08.160Z,40.23
2017-10-20T17:31:35.705Z,54.60
2017-10-20T17:34:03.256Z,52.03
2017-10-20T17:36:30.795Z,54.53
2017-10-20T17:38:58.329Z,44.10
2017-10-20T17:41:25.921Z,50.43
2017-10-20T17:43:56.151Z,49.37
2017-10-20T17:46:23.709Z,47.43
2017-10-20T17:48:53.458Z,59.33
2017-10-20T17:51:20.996Z,51.37
2017-10-20T17:53:49.520Z,56.13
2017-10-20T17:56:19.176Z,48.63
2017-10-20T17:58:47.499Z,47.07
2017-10-20T18:01:15.940Z,58.20
2017-10-20T18:03:46.383Z,46.27
2017-10-20T18:06:13.950Z,40.40
2017-10-20T18:08:41.573Z,58.40
2017-10-20T18:11:09.910Z,55.40
2017-10-20T18:13:37.517Z,46.70
2017-10-20T18:16:05.269Z,51.43
2017-10-20T18:18:32.827Z,53.47
2017-10-20T18:21:00.371Z,47.20
2017-10-20T18:23:27.915Z,55.10
2017-10-20T18:25:55.522Z,50.47
2017-10-20T18:28:23.060Z,55.43
2017-10-20T18:30:51.397Z,48.10
2017-10-20T18:33:18.945Z,51.83
2017-10-20T18:35:46.485Z,56.93
2017-10-20T18:38:15.229Z,47.17
2017-10-20T18:40:42.769Z,47.77
2017-10-20T18:43:10.397Z,49.43
2017-10-20T18:45:37.940Z,47.03
2017-10-20T18:48:06.305Z,52.60
2017-10-20T18:50:34.629Z,53.20
2017-10-20T18:53:02.167Z,57.27
2017-10-20T18:55:29.704Z,48.67
2017-10-20T18:57:57.248Z,40.10
2017-10-20T19:00:24.825Z,49.73
2017-10-20T19:02:53.180Z,51.93
2017-10-20T19:05:20.711Z,54.97
2017-10-20T19:07:48.248Z,51.17
2017-10-20T19:10:16.241Z,65.77
2017-10-20T19:12:44.804Z,59.67
2017-10-20T19:15:12.380Z,59.67
2017-10-20T19:17:39.921Z,50.67
2017-10-20T19:20:07.460Z,55.13
2017-10-20T19:22:35.049Z,51.47
2017-10-20T19:25:02.617Z,51.93
2017-10-20T19:27:30.188Z,52.80
2017-10-20T19:29:57.731Z,56.70
2017-10-20T19:32:25.273Z,53.80
2017-10-20T19:34:52.866Z,47.80
2017-10-20T19:37:20.409Z,45.60
2017-10-20T19:39:47.939Z,46.63
2017-10-20T19:42:16.413Z,58.77
2017-10-20T19:44:44.017Z,55.70
2017-10-20T19:47:11.582Z,53.90
2017-10-20T19:49:51.874Z,53.63
2017-10-20T19:52:20.544Z,47.27
2017-10-20T19:54:48.156Z,42.50
2017-10-20T19:57:15.741Z,40.30
2017-10-20T19:59:44.173Z,34.67
2017-10-20T20:02:12.516Z,43.67
2017-10-20T20:04:40.273Z,42.97
2017-10-20T20:07:08.488Z,36.97
2017-10-20T20:09:37.087Z,41.13
2017-10-20T20:12:05.216Z,32.87
2017-10-20T20:14:33.921Z,39.97
2017-10-20T20:17:01.566Z,45.20
2017-10-20T20:19:30.244Z,42.83
2017-10-20T20:21:58.824Z,36.13
2017-10-20T20:24:27.409Z,42.37
2017-10-20T20:26:55.041Z,48.67
2017-10-20T20:29:23.862Z,41.50
2017-10-20T20:32:07.072Z,46.40
2017-10-20T20:34:34.656Z,41.80
2017-10-20T20:37:03.027Z,39.23
2017-10-20T20:39:30.886Z,30.47
2017-10-20T20:41:58.444Z,29.60
2017-10-20T20:44:25.984Z,24.67
2017-10-20T20:46:54.812Z,25.20
2017-10-20T20:49:24.015Z,32.27
2017-10-20T20:51:52.068Z,23.60
2017-10-20T20:54:19.848Z,21.20
2017-10-20T20:56:47.542Z,21.90
2017-10-20T20:59:15.076Z,23.10
2017-10-20T21:01:42.685Z,18.97
2017-10-20T21:04:10.958Z,21.23
2017-10-20T21:06:38.502Z,24.63
2017-10-20T21:09:06.129Z,20.80
2017-10-20T21:11:33.677Z,20.23
2017-10-20T21:14:02.574Z,25.67
2017-10-20T21:16:30.342Z,20.23
2017-10-20T21:18:58.746Z,22.90
2017-10-20T21:21:26.584Z,18.50
2017-10-20T21:23:55.384Z,19.00
2017-10-20T21:26:24.882Z,23.10
2017-10-20T21:28:52.872Z,26.33
2017-10-20T21:31:21.212Z,26.10
2017-10-20T21:33:48.744Z,29.77
2017-10-20T21:36:16.285Z,24.63
2017-10-20T21:38:45.860Z,25.30
2017-10-20T21:41:13.437Z,26.07
2017-10-20T21:43:42.957Z,24.60
2017-10-20T21:46:11.201Z,23.33
2017-10-20T21:48:42.641Z,29.70
2017-10-20T21:51:14.152Z,19.13
2017-10-20T21:53:45.413Z,20.90
2017-10-20T21:56:17.107Z,27.13
2017-10-20T21:58:45.004Z,22.60
2017-10-20T22:01:16.080Z,20.40
2017-10-20T22:06:19.255Z,23.77
2017-10-20T22:08:47.925Z,21.43
2017-10-20T22:11:15.843Z,22.23
2017-10-20T22:13:43.622Z,25.47
2017-10-20T22:16:11.432Z,25.43
2017-10-20T22:18:39.154Z,29.33
2017-10-20T22:21:09.271Z,20.63
2017-10-20T22:23:37.386Z,21.90
2017-10-20T22:26:05.253Z,24.80
2017-10-20T22:28:33.635Z,23.60
2017-10-20T22:31:01.953Z,22.27
2017-10-20T22:33:29.868Z,24.73
2017-10-20T22:35:57.744Z,21.17
2017-10-20T22:38:25.511Z,18.80
2017-10-20T22:40:53.254Z,27.70
2017-10-20T22:43:21.362Z,23.07
2017-10-20T22:45:49.377Z,25.60
2017-10-20T22:48:17.183Z,26.83
2017-10-20T22:50:45.263Z,27.57
2017-10-20T22:53:13.119Z,22.10
2017-10-20T22:55:40.797Z,25.17
2017-10-20T22:58:08.371Z,24.83
2017-10-20T23:00:36.011Z,24.57
2017-10-20T23:03:07.702Z,28.43
2017-10-20T23:05:36.144Z,23.60
2017-10-20T23:08:03.747Z,20.40
2017-10-20T23:10:31.328Z,24.93
2017-10-20T23:12:58.932Z,22.57
2017-10-20T23:15:27.284Z,28.47
2017-10-20T23:17:54.829Z,21.87
2017-10-20T23:20:22.376Z,20.60
2017-10-20T23:22:50.830Z,25.20
2017-10-20T23:25:18.475Z,25.80
2017-10-20T23:27:46.017Z,25.93
2017-10-20T23:30:13.596Z,27.23
2017-10-20T23:32:41.140Z,31.10
2017-10-20T23:35:09.440Z,24.83
2017-10-20T23:37:38.017Z,19.90
2017-10-20T23:40:06.357Z,26.13
2017-10-20T23:42:34.781Z,27.60
2017-10-20T23:45:02.321Z,26.80
2017-10-20T23:47:30.004Z,25.20
2017-10-20T23:49:58.224Z,27.00
2017-10-20T23:52:25.808Z,24.50
2017-10-20T23:54:54.286Z,27.27
2017-10-20T23:57:21.829Z,26.27
2017-10-20T23:59:50.361Z,20.87
